• Join FlightAware (Why Join?)
  • Login
  • US Flag 
05:39PM EST


 

Airport Tracker/Info


-or-


 

Live Flight TrackerFlight Track Log ✈ OPT325 ✈ 08-Apr-2014 ✈ KAPC - KBUR

Flight Track Log - Related Links

Times and Time Zones

All times are in EDT time to prevent confusion due to time zone crossing. See the OPT325 flight status page for this flight to view local times or setup timezone preferences in your user account.

Time Position Orientation Groundspeed Altitude Reporting Facility
EDT Latitude Longitude Course Direction KTS MPH feet Rate Location/Type
06:05PM 38.1841 -122.3680 231° Southwest 195 224 4,900  Level FlightAware ADS-B
06:05PM 38.1610 -122.3850 196° South 215 247 6,600 3,720 Climbing FlightAware ADS-B
06:06PM 38.1356 -122.3950 195° South 218 251 8,300 3,180 Climbing FlightAware ADS-B
06:06PM 38.1235 -122.3978 188° South 222 255 9,200 3,720 Climbing FlightAware ADS-B
06:06PM 38.1015 -122.3880 142° Southeast 237 273 10,500 3,600 Climbing FlightAware ADS-B
06:07PM 38.1044 -122.3909 147° Southeast 233 268 10,400 2,220 Descending FlightAware ADS-B
06:07PM 38.0884 -122.3714 135° Southeast 239 275 11,600 3,420 Climbing FlightAware ADS-B
06:08PM 38.0515 -122.3323 143° Southeast 255 293 13,900 4,020 Climbing FlightAware ADS-B
06:08PM 38.0268 -122.3080 134° Southeast 240 276 15,400 4,500 Climbing FlightAware ADS-B
06:08PM 38.0036 -122.2836 139° Southeast 268 308 16,900 3,120 Climbing FlightAware ADS-B
06:08PM 37.9928 -122.2720 140° Southeast 270 311 17,300 2,820 Climbing FlightAware ADS-B
06:09PM 37.9646 -122.2429 140° Southeast 279 321 18,800 3,240 Climbing FlightAware ADS-B
06:09PM 37.9391 -122.2169 141° Southeast 284 327 20,700 2,880 Climbing FlightAware ADS-B (KHWD)
06:10PM 37.9206 -122.1980 141° Southeast 281 323 20,900 1,740 Climbing FlightAware ADS-B
06:10PM 37.8928 -122.1698 141° Southeast 293 337 22,100 2,760 Climbing FlightAware ADS-B
06:10PM 37.8757 -122.1530 141° Southeast 297 342 22,900 3,900 Climbing FlightAware ADS-B
06:11PM 37.8413 -122.1180 141° Southeast 300 345 24,400 1,860 Climbing FlightAware ADS-B
06:11PM 37.8507 -122.1272 141° Southeast 298 343 24,000 2,700 Descending FlightAware ADS-B
06:11PM 37.8082 -122.0840 141° Southeast 302 348 25,800 2,700 Climbing FlightAware ADS-B
06:12PM 37.8061 -122.0821 141° Southeast 302 348 25,800 2,460 Level FlightAware ADS-B
06:12PM 37.7699 -122.0450 141° Southeast 310 357 27,200 3,480 Climbing FlightAware ADS-B
06:12PM 37.7641 -122.0397 141° Southeast 312 359 27,600 2,400 Climbing FlightAware ADS-B
06:13PM 37.7226 -121.9979 141° Southeast 320 368 28,900 2,460 Climbing FlightAware ADS-B
06:13PM 37.7142 -121.9890 141° Southeast 321 369 29,200 1,500 Climbing FlightAware ADS-B
06:13PM 37.6955 -121.9705 141° Southeast 326 375 29,800 1,860 Climbing FlightAware ADS-B
06:13PM 37.6763 -121.9510 141° Southeast 334 384 30,200 2,040 Climbing FlightAware ADS-B
06:14PM 37.6369 -121.9120 142° Southeast 352 405 31,000 1,080 Climbing FlightAware ADS-B
06:14PM 37.6426 -121.9174 141° Southeast 348 400 30,900 960 Descending FlightAware ADS-B
06:14PM 37.5970 -121.8720 142° Southeast 374 430 31,500 1,020 Climbing FlightAware ADS-B
06:15PM 37.5889 -121.8638 141° Southeast 377 434 31,600 1,080 Climbing FlightAware ADS-B
06:15PM 37.5526 -121.8270 141° Southeast 391 450 32,100 1,440 Climbing FlightAware ADS-B
06:15PM 37.5373 -121.8120 141° Southeast 400 460 32,400 960 Climbing FlightAware ADS-B
06:15PM 37.5069 -121.7810 141° Southeast 404 465 32,600 960 Climbing FlightAware ADS-B
06:16PM 37.4845 -121.7590 141° Southeast 409 471 32,900 720 Climbing FlightAware ADS-B
06:16PM 37.4613 -121.7360 141° Southeast 413 475 33,000 180 Climbing FlightAware ADS-B
06:16PM 37.4382 -121.7127 141° Southeast 409 471 33,000  Level FlightAware ADS-B
06:17PM 37.4081 -121.6820 141° Southeast 404 465 33,000  Level FlightAware ADS-B
06:17PM 37.3855 -121.6599 142° Southeast 400 460 33,000  Level FlightAware ADS-B
06:17PM 37.3551 -121.6300 142° Southeast 396 456 33,000  Level FlightAware ADS-B
06:17PM 37.3600 -121.6344 141° Southeast 396 456 33,000  Level FlightAware ADS-B
06:18PM 37.3106 -121.5853 142° Southeast 389 448 33,000  Level FlightAware ADS-B
06:19PM 37.2207 -121.4962 142° Southeast 390 449 33,000  Level FlightAware ADS-B (KHWD)
06:19PM 37.1723 -121.4484 142° Southeast 390 449 33,000  Level FlightAware ADS-B (KHWD)
06:20PM 37.1909 -121.4668 141° Southeast 390 449 33,000  Level FlightAware ADS-B
06:21PM 37.0042 -121.2830 142° Southeast 392 451 33,000  Level FlightAware ADS-B
06:22PM 36.9666 -121.2458 142° Southeast 391 450 33,000  Level FlightAware ADS-B (KHWD)
06:22PM 36.9563 -121.2360 142° Southeast 391 450 33,000  Level FlightAware ADS-B
06:22PM 36.9203 -121.2004 142° Southeast 390 449 33,000  Level FlightAware ADS-B (KHWD)
06:23PM 36.8867 -121.1670 142° Southeast 390 449 33,000  Level FlightAware ADS-B
06:23PM 36.8752 -121.1563 141° Southeast 393 452 33,000  Level FlightAware ADS-B
06:23PM 36.8174 -121.1000 142° Southeast 398 458 33,000  Level FlightAware ADS-B
06:24PM 36.8369 -121.1188 141° Southeast 398 458 33,000  Level FlightAware ADS-B
06:24PM 36.7253 -121.0100 142° Southeast 403 464 33,000  Level FlightAware ADS-B
06:25PM 36.7142 -120.9992 142° Southeast 411 473 33,000  Level FlightAware ADS-B
06:25PM 36.6608 -120.9470 142° Southeast 414 476 33,000  Level FlightAware ADS-B
06:26PM 36.5644 -120.8540 142° Southeast 415 478 33,000  Level FlightAware ADS-B
06:28PM 36.3971 -120.6920 142° Southeast 406 467 33,000  Level FlightAware ADS-B
06:29PM 36.3469 -120.6447 142° Southeast 415 478 33,000  Level Los Angeles Center
06:30PM 36.2586 -120.5608 143° Southeast 407 468 33,000  Level Oakland Center
06:31PM 36.1714 -120.4764 142° Southeast 402 463 33,000  Level Oakland Center
06:32PM 36.0839 -120.3928 142° Southeast 401 461 33,000  Level Oakland Center
06:33PM 35.9944 -120.3083 143° Southeast 401 461 33,000  Level Oakland Center
06:34PM 35.9047 -120.2233 142° Southeast 402 463 33,000  Level Oakland Center
06:35PM 35.8156 -120.1386 142° Southeast 402 463 33,000  Level Oakland Center
06:36PM 35.7256 -120.0514 142° Southeast 405 466 33,000  Level Oakland Center
06:37PM 35.6228 -120.0000 158° South 403 464 33,000 -1,380 Level Oakland Center
06:42PM 35.0470 -119.8027 132° Southeast 387 445 24,000 -1,620 Descending FlightAware ADS-B
06:44PM 34.8913 -119.5941 132° Southeast 393 452 21,200 -1,620 Descending FlightAware ADS-B
06:45PM 34.8619 -119.5547 132° Southeast 382 440 20,200 -1,740 Descending FlightAware ADS-B
06:45PM 34.8170 -119.4943 132° Southeast 372 428 19,400 -1,440 Descending FlightAware ADS-B
06:46PM 34.7794 -119.4437 132° Southeast 360 414 18,500 -1,680 Descending FlightAware ADS-B
06:48PM 34.6797 -119.3102 132° Southeast 346 398 15,600 -1,800 Descending FlightAware ADS-B
06:48PM 34.6239 -119.2353 121° Southeast 341 392 14,400 -1,560 Descending FlightAware ADS-B
06:49PM 34.5926 -119.1775 123° Southeast 338 389 13,700 -1,380 Descending FlightAware ADS-B
06:49PM 34.5655 -119.1268 123° Southeast 336 387 12,900 -1,500 Descending FlightAware ADS-B
06:50PM 34.5379 -119.0754 123° Southeast 333 383 12,100 -1,500 Descending FlightAware ADS-B
06:51PM 34.5068 -119.0175 126° Southeast 330 380 11,100 -1,620 Descending FlightAware ADS-B
06:51PM 34.4527 -118.9699 152° Southeast 297 342 9,800 -1,980 Descending FlightAware ADS-B
06:53PM 34.3728 -118.9022 133° Southeast 281 323 7,200 -1,920 Descending FlightAware ADS-B
06:53PM 34.3502 -118.8742 142° Southeast 275 316 6,600 -1,200 Descending FlightAware ADS-B
06:53PM 34.3260 -118.8505 137° Southeast 262 302 6,200 -1,080 Descending FlightAware ADS-B
06:54PM 34.3145 -118.8352 132° Southeast 256 295 6,000 -480 Descending FlightAware ADS-B
06:54PM 34.2946 -118.8083 132° Southeast 237 273 5,900 -180 Descending FlightAware ADS-B
06:54PM 34.2806 -118.7892 131° Southeast 228 262 5,900 -180 Level FlightAware ADS-B
06:55PM 34.2687 -118.7729 131° Southeast 230 265 5,800 -900 Descending FlightAware ADS-B
06:55PM 34.2535 -118.7519 131° Southeast 240 276 5,300 -1,200 Descending FlightAware ADS-B
06:55PM 34.2345 -118.7258 131° Southeast 237 273 4,900 -1,320 Descending FlightAware ADS-B
06:56PM 34.2233 -118.7102 131° Southeast 232 267 4,500 -1,380 Descending FlightAware ADS-B
06:56PM 34.2107 -118.6860 112° Southeast 229 264 4,000 -960 Descending FlightAware ADS-B
06:56PM 34.2089 -118.6804 112° Southeast 221 254 3,900 -120 Descending FlightAware ADS-B
06:57PM 34.2013 -118.6221 89° East 214 246 3,900  Level FlightAware ADS-B
06:57PM 34.2010 -118.6096 92° East 217 250 3,900  Level FlightAware ADS-B
06:58PM 34.2008 -118.5746 90° East 191 220 3,900 -600 Level FlightAware ADS-B
06:58PM 34.2006 -118.5477 90° East 180 207 3,300 -840 Descending FlightAware ADS-B
06:59PM 34.1998 -118.4974 91° East 163 188 2,700 -900 Descending FlightAware ADS-B
06:59PM 34.1996 -118.4838 91° East 160 184 2,400 -1,020 Descending FlightAware ADS-B
07:00PM 34.1992 -118.4614 91° East 157 181 2,100 -540 Descending FlightAware ADS-B
07:00PM 34.2000 -118.4500 90° East 158 182 2,100 -900 Level Southern California TRACON
07:00PM 34.1988 -118.4312 90° East 148 170 1,500 -1,320 Descending FlightAware ADS-B
07:02PM 34.2000 -118.3500 90° East  Level FlightAware Approximate
07:06PM 34.2000 -118.3500 90° East  Level FlightAware Approximate
07:09PM 34.2007 -118.3587 90° East  Level Estimated
07:10PM 34.2000 -118.3500 90° East  Level FlightAware Approximate
07:11PM 34.2007 -118.3587 90° East  Level Estimated